sensor_id;sensor_type;location;lat;lon;timestamp;P1;durP1;ratioP1;P2;durP2;ratioP2
64938;SDS011;51453;47.738;7.420;2023-12-28T00:01:08;15.23;;;8.52;;
64938;SDS011;51453;47.738;7.420;2023-12-28T00:03:33;16.05;;;9.45;;
64938;SDS011;51453;47.738;7.420;2023-12-28T00:05:59;16.75;;;9.07;;
64938;SDS011;51453;47.738;7.420;2023-12-28T00:08:25;15.85;;;9.45;;
64938;SDS011;51453;47.738;7.420;2023-12-28T00:10:50;17.20;;;9.30;;
64938;SDS011;51453;47.738;7.420;2023-12-28T00:13:16;15.30;;;9.23;;
64938;SDS011;51453;47.738;7.420;2023-12-28T00:15:42;15.30;;;9.38;;
64938;SDS011;51453;47.738;7.420;2023-12-28T00:18:08;15.30;;;9.32;;
64938;SDS011;51453;47.738;7.420;2023-12-28T00:20:33;14.32;;;9.10;;
64938;SDS011;51453;47.738;7.420;2023-12-28T00:22:59;16.35;;;9.07;;
64938;SDS011;51453;47.738;7.420;2023-12-28T00:25:25;13.70;;;8.50;;
64938;SDS011;51453;47.738;7.420;2023-12-28T00:27:51;14.07;;;8.65;;
64938;SDS011;51453;47.738;7.420;2023-12-28T00:30:16;12.60;;;8.48;;
64938;SDS011;51453;47.738;7.420;2023-12-28T00:32:43;13.90;;;7.97;;
64938;SDS011;51453;47.738;7.420;2023-12-28T00:35:09;13.10;;;8.40;;
64938;SDS011;51453;47.738;7.420;2023-12-28T00:37:36;14.70;;;8.48;;
64938;SDS011;51453;47.738;7.420;2023-12-28T00:40:01;16.58;;;8.52;;
64938;SDS011;51453;47.738;7.420;2023-12-28T00:42:27;13.75;;;8.30;;
64938;SDS011;51453;47.738;7.420;2023-12-28T00:44:52;14.82;;;8.73;;
64938;SDS011;51453;47.738;7.420;2023-12-28T00:47:18;16.05;;;8.10;;
64938;SDS011;51453;47.738;7.420;2023-12-28T00:49:44;12.80;;;8.48;;
64938;SDS011;51453;47.738;7.420;2023-12-28T00:52:09;15.52;;;8.55;;
64938;SDS011;51453;47.738;7.420;2023-12-28T00:54:38;17.48;;;9.35;;
64938;SDS011;51453;47.738;7.420;2023-12-28T00:57:04;16.45;;;9.30;;
64938;SDS011;51453;47.738;7.420;2023-12-28T00:59:30;17.65;;;10.27;;
64938;SDS011;51453;47.738;7.420;2023-12-28T01:01:56;17.85;;;10.07;;
64938;SDS011;51453;47.738;7.420;2023-12-28T01:04:22;22.63;;;10.63;;
64938;SDS011;51453;47.738;7.420;2023-12-28T01:06:48;16.88;;;9.95;;
64938;SDS011;51453;47.738;7.420;2023-12-28T01:09:14;19.60;;;10.65;;
64938;SDS011;51453;47.738;7.420;2023-12-28T01:11:40;15.95;;;9.82;;
64938;SDS011;51453;47.738;7.420;2023-12-28T01:14:06;15.27;;;9.35;;
64938;SDS011;51453;47.738;7.420;2023-12-28T01:16:32;15.75;;;9.57;;
64938;SDS011;51453;47.738;7.420;2023-12-28T01:18:58;15.82;;;9.55;;
64938;SDS011;51453;47.738;7.420;2023-12-28T01:21:23;15.55;;;9.80;;
64938;SDS011;51453;47.738;7.420;2023-12-28T01:23:50;24.70;;;11.57;;
64938;SDS011;51453;47.738;7.420;2023-12-28T01:26:16;15.98;;;10.20;;
64938;SDS011;51453;47.738;7.420;2023-12-28T01:28:44;15.05;;;9.40;;
64938;SDS011;51453;47.738;7.420;2023-12-28T01:31:10;16.20;;;9.98;;
64938;SDS011;51453;47.738;7.420;2023-12-28T01:33:35;22.92;;;9.93;;
64938;SDS011;51453;47.738;7.420;2023-12-28T01:36:01;15.43;;;9.82;;
64938;SDS011;51453;47.738;7.420;2023-12-28T01:38:27;16.00;;;9.13;;
64938;SDS011;51453;47.738;7.420;2023-12-28T01:40:53;16.02;;;9.38;;
64938;SDS011;51453;47.738;7.420;2023-12-28T01:43:19;17.00;;;10.10;;
64938;SDS011;51453;47.738;7.420;2023-12-28T01:45:45;18.70;;;10.43;;
64938;SDS011;51453;47.738;7.420;2023-12-28T01:48:10;15.82;;;9.88;;
64938;SDS011;51453;47.738;7.420;2023-12-28T01:50:37;16.10;;;9.65;;
64938;SDS011;51453;47.738;7.420;2023-12-28T01:53:03;22.42;;;12.07;;
64938;SDS011;51453;47.738;7.420;2023-12-28T01:55:29;19.30;;;11.88;;
64938;SDS011;51453;47.738;7.420;2023-12-28T01:57:56;18.30;;;10.05;;
64938;SDS011;51453;47.738;7.420;2023-12-28T02:00:22;19.85;;;10.25;;
64938;SDS011;51453;47.738;7.420;2023-12-28T02:02:50;16.73;;;9.60;;
64938;SDS011;51453;47.738;7.420;2023-12-28T02:05:16;14.95;;;10.00;;
64938;SDS011;51453;47.738;7.420;2023-12-28T02:07:43;17.88;;;10.60;;
64938;SDS011;51453;47.738;7.420;2023-12-28T02:10:08;15.73;;;9.63;;
64938;SDS011;51453;47.738;7.420;2023-12-28T02:12:34;17.25;;;9.90;;
64938;SDS011;51453;47.738;7.420;2023-12-28T02:15:00;17.80;;;10.23;;
64938;SDS011;51453;47.738;7.420;2023-12-28T02:17:28;17.25;;;9.75;;
64938;SDS011;51453;47.738;7.420;2023-12-28T02:20:00;19.23;;;9.50;;
64938;SDS011;51453;47.738;7.420;2023-12-28T02:22:30;15.88;;;9.85;;
64938;SDS011;51453;47.738;7.420;2023-12-28T02:27:36;18.58;;;9.93;;
64938;SDS011;51453;47.738;7.420;2023-12-28T02:30:07;18.95;;;10.27;;
64938;SDS011;51453;47.738;7.420;2023-12-28T02:35:20;14.63;;;9.73;;
64938;SDS011;51453;47.738;7.420;2023-12-28T02:37:51;17.38;;;9.27;;
64938;SDS011;51453;47.738;7.420;2023-12-28T02:40:20;20.38;;;10.35;;
64938;SDS011;51453;47.738;7.420;2023-12-28T02:42:47;17.65;;;9.75;;
64938;SDS011;51453;47.738;7.420;2023-12-28T02:45:13;15.23;;;9.73;;
64938;SDS011;51453;47.738;7.420;2023-12-28T02:47:38;17.17;;;9.90;;
64938;SDS011;51453;47.738;7.420;2023-12-28T02:50:04;17.48;;;10.55;;
64938;SDS011;51453;47.738;7.420;2023-12-28T02:52:31;19.10;;;10.98;;
64938;SDS011;51453;47.738;7.420;2023-12-28T02:54:56;16.70;;;11.00;;
64938;SDS011;51453;47.738;7.420;2023-12-28T02:57:22;17.00;;;10.52;;
64938;SDS011;51453;47.738;7.420;2023-12-28T02:59:48;18.10;;;10.93;;
64938;SDS011;51453;47.738;7.420;2023-12-28T03:02:13;17.27;;;11.13;;
64938;SDS011;51453;47.738;7.420;2023-12-28T03:04:39;18.15;;;11.07;;
64938;SDS011;51453;47.738;7.420;2023-12-28T03:07:05;17.15;;;11.15;;
64938;SDS011;51453;47.738;7.420;2023-12-28T03:09:32;20.67;;;10.25;;
64938;SDS011;51453;47.738;7.420;2023-12-28T03:11:59;17.85;;;11.00;;
64938;SDS011;51453;47.738;7.420;2023-12-28T03:14:25;18.83;;;10.77;;
64938;SDS011;51453;47.738;7.420;2023-12-28T03:16:51;17.67;;;10.20;;
64938;SDS011;51453;47.738;7.420;2023-12-28T03:19:16;15.40;;;10.30;;
64938;SDS011;51453;47.738;7.420;2023-12-28T03:21:42;18.88;;;10.55;;
64938;SDS011;51453;47.738;7.420;2023-12-28T03:24:08;19.10;;;10.82;;
64938;SDS011;51453;47.738;7.420;2023-12-28T03:26:40;21.20;;;10.73;;
64938;SDS011;51453;47.738;7.420;2023-12-28T03:29:06;23.42;;;11.02;;
64938;SDS011;51453;47.738;7.420;2023-12-28T03:31:33;17.85;;;10.85;;
64938;SDS011;51453;47.738;7.420;2023-12-28T03:33:59;17.17;;;9.95;;
64938;SDS011;51453;47.738;7.420;2023-12-28T03:36:24;17.35;;;9.88;;
64938;SDS011;51453;47.738;7.420;2023-12-28T03:38:50;16.98;;;10.75;;
64938;SDS011;51453;47.738;7.420;2023-12-28T03:41:17;16.75;;;10.07;;
64938;SDS011;51453;47.738;7.420;2023-12-28T03:43:43;19.80;;;10.68;;
64938;SDS011;51453;47.738;7.420;2023-12-28T03:46:09;19.42;;;10.30;;
64938;SDS011;51453;47.738;7.420;2023-12-28T03:48:35;20.13;;;11.20;;
64938;SDS011;51453;47.738;7.420;2023-12-28T03:51:02;17.63;;;10.35;;
64938;SDS011;51453;47.738;7.420;2023-12-28T03:53:28;15.43;;;9.98;;
64938;SDS011;51453;47.738;7.420;2023-12-28T03:55:53;17.58;;;10.00;;
64938;SDS011;51453;47.738;7.420;2023-12-28T03:58:19;18.58;;;10.45;;
64938;SDS011;51453;47.738;7.420;2023-12-28T04:00:44;16.83;;;10.50;;
64938;SDS011;51453;47.738;7.420;2023-12-28T04:03:10;17.42;;;10.05;;
64938;SDS011;51453;47.738;7.420;2023-12-28T04:05:36;16.70;;;10.25;;
64938;SDS011;51453;47.738;7.420;2023-12-28T04:08:01;19.48;;;10.05;;
64938;SDS011;51453;47.738;7.420;2023-12-28T04:10:31;18.67;;;11.05;;
64938;SDS011;51453;47.738;7.420;2023-12-28T04:12:58;15.13;;;10.27;;
64938;SDS011;51453;47.738;7.420;2023-12-28T04:15:27;17.27;;;10.18;;
64938;SDS011;51453;47.738;7.420;2023-12-28T04:17:52;17.25;;;10.65;;
64938;SDS011;51453;47.738;7.420;2023-12-28T04:20:18;20.38;;;10.27;;
64938;SDS011;51453;47.738;7.420;2023-12-28T04:22:44;20.90;;;10.50;;
64938;SDS011;51453;47.738;7.420;2023-12-28T04:25:09;17.17;;;10.00;;
64938;SDS011;51453;47.738;7.420;2023-12-28T04:27:35;20.10;;;10.40;;
64938;SDS011;51453;47.738;7.420;2023-12-28T04:30:02;16.63;;;9.77;;
64938;SDS011;51453;47.738;7.420;2023-12-28T04:32:30;17.52;;;10.20;;
64938;SDS011;51453;47.738;7.420;2023-12-28T04:34:57;19.52;;;9.60;;
64938;SDS011;51453;47.738;7.420;2023-12-28T04:37:23;16.70;;;9.60;;
64938;SDS011;51453;47.738;7.420;2023-12-28T04:39:48;15.15;;;9.50;;
64938;SDS011;51453;47.738;7.420;2023-12-28T04:42:14;16.40;;;9.73;;
64938;SDS011;51453;47.738;7.420;2023-12-28T04:44:39;16.85;;;9.20;;
64938;SDS011;51453;47.738;7.420;2023-12-28T04:47:05;18.50;;;10.15;;
64938;SDS011;51453;47.738;7.420;2023-12-28T04:49:31;23.83;;;12.93;;
64938;SDS011;51453;47.738;7.420;2023-12-28T04:51:57;21.95;;;12.63;;
64938;SDS011;51453;47.738;7.420;2023-12-28T04:54:23;19.52;;;9.93;;
64938;SDS011;51453;47.738;7.420;2023-12-28T04:56:48;15.82;;;9.60;;
64938;SDS011;51453;47.738;7.420;2023-12-28T04:59:14;14.27;;;8.95;;
64938;SDS011;51453;47.738;7.420;2023-12-28T05:01:40;16.50;;;9.63;;
64938;SDS011;51453;47.738;7.420;2023-12-28T05:04:06;18.38;;;9.57;;
64938;SDS011;51453;47.738;7.420;2023-12-28T05:06:32;13.55;;;8.90;;
64938;SDS011;51453;47.738;7.420;2023-12-28T05:08:58;15.55;;;8.60;;
64938;SDS011;51453;47.738;7.420;2023-12-28T05:11:23;14.98;;;8.45;;
64938;SDS011;51453;47.738;7.420;2023-12-28T05:13:49;16.63;;;8.95;;
64938;SDS011;51453;47.738;7.420;2023-12-28T05:16:15;13.38;;;7.75;;
64938;SDS011;51453;47.738;7.420;2023-12-28T05:18:40;17.83;;;7.93;;
64938;SDS011;51453;47.738;7.420;2023-12-28T05:21:06;11.27;;;7.60;;
64938;SDS011;51453;47.738;7.420;2023-12-28T05:23:31;13.07;;;8.23;;
64938;SDS011;51453;47.738;7.420;2023-12-28T05:25:57;12.40;;;7.68;;
64938;SDS011;51453;47.738;7.420;2023-12-28T05:28:23;12.40;;;7.47;;
64938;SDS011;51453;47.738;7.420;2023-12-28T05:30:48;12.57;;;7.20;;
64938;SDS011;51453;47.738;7.420;2023-12-28T05:33:14;15.27;;;7.63;;
64938;SDS011;51453;47.738;7.420;2023-12-28T05:35:39;10.38;;;6.38;;
64938;SDS011;51453;47.738;7.420;2023-12-28T05:38:05;11.23;;;7.32;;
64938;SDS011;51453;47.738;7.420;2023-12-28T05:40:30;14.43;;;7.03;;
64938;SDS011;51453;47.738;7.420;2023-12-28T05:42:56;12.80;;;7.50;;
64938;SDS011;51453;47.738;7.420;2023-12-28T05:45:22;12.07;;;6.50;;
64938;SDS011;51453;47.738;7.420;2023-12-28T05:47:47;11.82;;;6.80;;
64938;SDS011;51453;47.738;7.420;2023-12-28T05:50:13;11.65;;;6.50;;
64938;SDS011;51453;47.738;7.420;2023-12-28T05:52:38;11.00;;;6.22;;
64938;SDS011;51453;47.738;7.420;2023-12-28T05:55:04;10.40;;;6.00;;
64938;SDS011;51453;47.738;7.420;2023-12-28T05:57:30;11.25;;;6.40;;
64938;SDS011;51453;47.738;7.420;2023-12-28T05:59:59;11.35;;;6.20;;
64938;SDS011;51453;47.738;7.420;2023-12-28T06:02:24;10.05;;;5.80;;
64938;SDS011;51453;47.738;7.420;2023-12-28T06:04:50;11.70;;;6.10;;
64938;SDS011;51453;47.738;7.420;2023-12-28T06:07:16;11.40;;;6.38;;
64938;SDS011;51453;47.738;7.420;2023-12-28T06:09:41;11.45;;;6.55;;
64938;SDS011;51453;47.738;7.420;2023-12-28T06:12:07;9.73;;;6.50;;
64938;SDS011;51453;47.738;7.420;2023-12-28T06:14:33;10.18;;;6.50;;
64938;SDS011;51453;47.738;7.420;2023-12-28T06:16:58;11.38;;;6.50;;
64938;SDS011;51453;47.738;7.420;2023-12-28T06:19:24;13.77;;;7.18;;
64938;SDS011;51453;47.738;7.420;2023-12-28T06:21:49;15.25;;;6.60;;
64938;SDS011;51453;47.738;7.420;2023-12-28T06:24:15;11.07;;;7.50;;
64938;SDS011;51453;47.738;7.420;2023-12-28T06:26:41;10.77;;;6.80;;
64938;SDS011;51453;47.738;7.420;2023-12-28T06:29:08;12.05;;;7.03;;
64938;SDS011;51453;47.738;7.420;2023-12-28T06:31:35;10.82;;;7.00;;
64938;SDS011;51453;47.738;7.420;2023-12-28T06:34:04;13.05;;;6.90;;
64938;SDS011;51453;47.738;7.420;2023-12-28T06:36:31;11.38;;;6.60;;
64938;SDS011;51453;47.738;7.420;2023-12-28T06:38:57;13.02;;;6.03;;
64938;SDS011;51453;47.738;7.420;2023-12-28T06:41:23;9.45;;;6.10;;
64938;SDS011;51453;47.738;7.420;2023-12-28T06:43:50;11.15;;;6.80;;
64938;SDS011;51453;47.738;7.420;2023-12-28T06:46:16;11.15;;;6.63;;
64938;SDS011;51453;47.738;7.420;2023-12-28T06:48:42;12.25;;;6.97;;
64938;SDS011;51453;47.738;7.420;2023-12-28T06:51:08;18.25;;;7.80;;
64938;SDS011;51453;47.738;7.420;2023-12-28T06:53:44;11.80;;;7.15;;
64938;SDS011;51453;47.738;7.420;2023-12-28T06:56:10;11.57;;;6.72;;
64938;SDS011;51453;47.738;7.420;2023-12-28T06:58:36;11.40;;;6.90;;
64938;SDS011;51453;47.738;7.420;2023-12-28T07:01:07;11.48;;;6.57;;
64938;SDS011;51453;47.738;7.420;2023-12-28T07:03:33;11.00;;;7.07;;
64938;SDS011;51453;47.738;7.420;2023-12-28T07:05:59;11.10;;;6.90;;
64938;SDS011;51453;47.738;7.420;2023-12-28T07:08:24;9.45;;;5.88;;
64938;SDS011;51453;47.738;7.420;2023-12-28T07:10:50;11.52;;;7.30;;
64938;SDS011;51453;47.738;7.420;2023-12-28T07:13:16;12.80;;;6.82;;
64938;SDS011;51453;47.738;7.420;2023-12-28T07:15:41;15.02;;;6.15;;
64938;SDS011;51453;47.738;7.420;2023-12-28T07:18:07;11.30;;;7.15;;
64938;SDS011;51453;47.738;7.420;2023-12-28T07:20:33;12.77;;;6.65;;
64938;SDS011;51453;47.738;7.420;2023-12-28T07:22:58;10.80;;;6.65;;
64938;SDS011;51453;47.738;7.420;2023-12-28T07:25:24;14.15;;;8.27;;
64938;SDS011;51453;47.738;7.420;2023-12-28T07:27:50;14.07;;;8.93;;
64938;SDS011;51453;47.738;7.420;2023-12-28T07:30:15;16.63;;;10.55;;
64938;SDS011;51453;47.738;7.420;2023-12-28T07:32:42;21.25;;;12.73;;
64938;SDS011;51453;47.738;7.420;2023-12-28T07:35:08;20.15;;;13.60;;
64938;SDS011;51453;47.738;7.420;2023-12-28T07:37:34;20.08;;;12.00;;
64938;SDS011;51453;47.738;7.420;2023-12-28T07:40:00;15.63;;;11.00;;
64938;SDS011;51453;47.738;7.420;2023-12-28T07:42:26;14.10;;;10.13;;
64938;SDS011;51453;47.738;7.420;2023-12-28T07:44:52;14.82;;;9.60;;
64938;SDS011;51453;47.738;7.420;2023-12-28T07:47:18;13.40;;;8.70;;
64938;SDS011;51453;47.738;7.420;2023-12-28T07:49:43;14.85;;;7.95;;
64938;SDS011;51453;47.738;7.420;2023-12-28T07:52:09;13.40;;;7.50;;
64938;SDS011;51453;47.738;7.420;2023-12-28T07:54:35;12.27;;;6.85;;
64938;SDS011;51453;47.738;7.420;2023-12-28T07:57:00;11.20;;;7.28;;
64938;SDS011;51453;47.738;7.420;2023-12-28T07:59:26;11.25;;;6.53;;
64938;SDS011;51453;47.738;7.420;2023-12-28T08:01:52;9.85;;;6.93;;
64938;SDS011;51453;47.738;7.420;2023-12-28T08:04:17;13.35;;;7.07;;
64938;SDS011;51453;47.738;7.420;2023-12-28T08:06:43;11.43;;;6.80;;
64938;SDS011;51453;47.738;7.420;2023-12-28T08:09:09;13.30;;;6.97;;
64938;SDS011;51453;47.738;7.420;2023-12-28T08:11:35;16.52;;;6.97;;
64938;SDS011;51453;47.738;7.420;2023-12-28T08:14:00;14.00;;;7.13;;
64938;SDS011;51453;47.738;7.420;2023-12-28T08:16:26;10.88;;;7.15;;
64938;SDS011;51453;47.738;7.420;2023-12-28T08:18:52;12.18;;;6.88;;
64938;SDS011;51453;47.738;7.420;2023-12-28T08:21:18;12.23;;;6.90;;
64938;SDS011;51453;47.738;7.420;2023-12-28T08:23:43;13.95;;;7.13;;
64938;SDS011;51453;47.738;7.420;2023-12-28T08:26:09;14.25;;;6.20;;
64938;SDS011;51453;47.738;7.420;2023-12-28T08:28:35;11.77;;;6.45;;
64938;SDS011;51453;47.738;7.420;2023-12-28T08:31:01;9.55;;;6.22;;
64938;SDS011;51453;47.738;7.420;2023-12-28T08:33:27;13.93;;;6.78;;
64938;SDS011;51453;47.738;7.420;2023-12-28T08:35:52;10.95;;;6.63;;
64938;SDS011;51453;47.738;7.420;2023-12-28T08:38:19;11.95;;;6.57;;
64938;SDS011;51453;47.738;7.420;2023-12-28T08:40:44;11.05;;;6.95;;
64938;SDS011;51453;47.738;7.420;2023-12-28T08:43:10;16.65;;;9.32;;
64938;SDS011;51453;47.738;7.420;2023-12-28T08:45:36;20.98;;;9.65;;
64938;SDS011;51453;47.738;7.420;2023-12-28T08:48:02;19.83;;;9.88;;
64938;SDS011;51453;47.738;7.420;2023-12-28T08:50:28;16.30;;;9.15;;
64938;SDS011;51453;47.738;7.420;2023-12-28T08:52:54;13.98;;;8.43;;
64938;SDS011;51453;47.738;7.420;2023-12-28T08:55:19;16.38;;;8.85;;
64938;SDS011;51453;47.738;7.420;2023-12-28T08:57:46;14.05;;;8.15;;
64938;SDS011;51453;47.738;7.420;2023-12-28T09:00:13;19.38;;;9.25;;
64938;SDS011;51453;47.738;7.420;2023-12-28T09:02:40;12.85;;;7.75;;
64938;SDS011;51453;47.738;7.420;2023-12-28T09:05:06;12.25;;;7.50;;
64938;SDS011;51453;47.738;7.420;2023-12-28T09:07:32;12.32;;;7.30;;
64938;SDS011;51453;47.738;7.420;2023-12-28T09:09:58;14.75;;;7.70;;
64938;SDS011;51453;47.738;7.420;2023-12-28T09:12:23;19.33;;;7.75;;
64938;SDS011;51453;47.738;7.420;2023-12-28T09:14:49;12.02;;;7.13;;
64938;SDS011;51453;47.738;7.420;2023-12-28T09:17:17;16.48;;;8.13;;
64938;SDS011;51453;47.738;7.420;2023-12-28T09:19:46;12.13;;;7.22;;
64938;SDS011;51453;47.738;7.420;2023-12-28T09:22:11;11.75;;;6.65;;
64938;SDS011;51453;47.738;7.420;2023-12-28T09:24:37;10.20;;;6.95;;
64938;SDS011;51453;47.738;7.420;2023-12-28T09:27:03;12.88;;;7.60;;
64938;SDS011;51453;47.738;7.420;2023-12-28T09:29:28;13.35;;;7.20;;
64938;SDS011;51453;47.738;7.420;2023-12-28T09:31:54;11.80;;;7.00;;
64938;SDS011;51453;47.738;7.420;2023-12-28T09:34:20;11.32;;;6.65;;
64938;SDS011;51453;47.738;7.420;2023-12-28T09:36:45;14.40;;;7.05;;
64938;SDS011;51453;47.738;7.420;2023-12-28T09:39:11;13.57;;;6.43;;
64938;SDS011;51453;47.738;7.420;2023-12-28T09:41:38;9.52;;;6.47;;
64938;SDS011;51453;47.738;7.420;2023-12-28T09:44:08;19.40;;;7.25;;
64938;SDS011;51453;47.738;7.420;2023-12-28T09:46:36;9.43;;;6.38;;
64938;SDS011;51453;47.738;7.420;2023-12-28T09:49:04;12.75;;;6.68;;
64938;SDS011;51453;47.738;7.420;2023-12-28T09:51:30;13.57;;;6.82;;
64938;SDS011;51453;47.738;7.420;2023-12-28T09:53:59;11.15;;;6.88;;
64938;SDS011;51453;47.738;7.420;2023-12-28T09:56:24;15.88;;;6.85;;
64938;SDS011;51453;47.738;7.420;2023-12-28T09:58:50;12.02;;;7.30;;
64938;SDS011;51453;47.738;7.420;2023-12-28T10:01:17;13.77;;;8.23;;
64938;SDS011;51453;47.738;7.420;2023-12-28T10:03:44;13.82;;;7.85;;
64938;SDS011;51453;47.738;7.420;2023-12-28T10:06:09;15.75;;;7.78;;
64938;SDS011;51453;47.738;7.420;2023-12-28T10:08:35;11.02;;;7.40;;
64938;SDS011;51453;47.738;7.420;2023-12-28T10:11:03;14.48;;;7.60;;
64938;SDS011;51453;47.738;7.420;2023-12-28T10:13:32;10.65;;;7.07;;
64938;SDS011;51453;47.738;7.420;2023-12-28T10:15:58;11.77;;;6.97;;
64938;SDS011;51453;47.738;7.420;2023-12-28T10:18:24;11.93;;;6.90;;
64938;SDS011;51453;47.738;7.420;2023-12-28T10:20:50;11.40;;;6.70;;
64938;SDS011;51453;47.738;7.420;2023-12-28T10:23:17;10.93;;;6.97;;
64938;SDS011;51453;47.738;7.420;2023-12-28T10:25:44;10.68;;;6.63;;
64938;SDS011;51453;47.738;7.420;2023-12-28T10:28:11;11.00;;;6.38;;
64938;SDS011;51453;47.738;7.420;2023-12-28T10:30:40;10.43;;;6.95;;
64938;SDS011;51453;47.738;7.420;2023-12-28T10:33:06;12.38;;;6.70;;
64938;SDS011;51453;47.738;7.420;2023-12-28T10:35:32;12.13;;;6.47;;
64938;SDS011;51453;47.738;7.420;2023-12-28T10:38:01;9.60;;;5.80;;
64938;SDS011;51453;47.738;7.420;2023-12-28T10:40:28;12.18;;;6.60;;
64938;SDS011;51453;47.738;7.420;2023-12-28T10:42:59;11.27;;;6.40;;
64938;SDS011;51453;47.738;7.420;2023-12-28T10:45:29;10.02;;;6.45;;
64938;SDS011;51453;47.738;7.420;2023-12-28T10:50:30;10.80;;;6.00;;
64938;SDS011;51453;47.738;7.420;2023-12-28T10:53:04;11.32;;;6.35;;
64938;SDS011;51453;47.738;7.420;2023-12-28T10:55:48;15.25;;;7.72;;
64938;SDS011;51453;47.738;7.420;2023-12-28T11:01:07;11.73;;;6.20;;
64938;SDS011;51453;47.738;7.420;2023-12-28T11:03:37;14.13;;;7.80;;
64938;SDS011;51453;47.738;7.420;2023-12-28T11:06:05;20.45;;;10.02;;
64938;SDS011;51453;47.738;7.420;2023-12-28T11:08:33;22.60;;;12.43;;
64938;SDS011;51453;47.738;7.420;2023-12-28T11:11:00;19.35;;;10.25;;
64938;SDS011;51453;47.738;7.420;2023-12-28T11:13:29;18.98;;;9.23;;
64938;SDS011;51453;47.738;7.420;2023-12-28T11:15:57;9.65;;;6.53;;
64938;SDS011;51453;47.738;7.420;2023-12-28T11:18:23;11.20;;;7.47;;
64938;SDS011;51453;47.738;7.420;2023-12-28T11:20:53;9.80;;;6.38;;
64938;SDS011;51453;47.738;7.420;2023-12-28T11:23:19;12.52;;;7.30;;
64938;SDS011;51453;47.738;7.420;2023-12-28T11:25:44;12.52;;;7.35;;
64938;SDS011;51453;47.738;7.420;2023-12-28T11:28:11;15.02;;;6.82;;
64938;SDS011;51453;47.738;7.420;2023-12-28T11:30:37;12.25;;;6.72;;
64938;SDS011;51453;47.738;7.420;2023-12-28T11:33:06;10.93;;;7.25;;
64938;SDS011;51453;47.738;7.420;2023-12-28T11:35:38;17.38;;;8.48;;
64938;SDS011;51453;47.738;7.420;2023-12-28T11:38:06;12.48;;;7.20;;
64938;SDS011;51453;47.738;7.420;2023-12-28T11:41:07;11.60;;;6.35;;
64938;SDS011;51453;47.738;7.420;2023-12-28T11:43:28;10.35;;;6.65;;
64938;SDS011;51453;47.738;7.420;2023-12-28T11:45:58;14.40;;;8.93;;
64938;SDS011;51453;47.738;7.420;2023-12-28T11:48:25;13.50;;;8.85;;
64938;SDS011;51453;47.738;7.420;2023-12-28T11:50:55;14.23;;;8.85;;
64938;SDS011;51453;47.738;7.420;2023-12-28T11:53:22;16.02;;;9.50;;
64938;SDS011;51453;47.738;7.420;2023-12-28T11:55:49;15.68;;;9.32;;
64938;SDS011;51453;47.738;7.420;2023-12-28T11:58:16;14.38;;;9.25;;
64938;SDS011;51453;47.738;7.420;2023-12-28T12:00:42;15.80;;;9.98;;
64938;SDS011;51453;47.738;7.420;2023-12-28T12:03:11;17.52;;;9.43;;
64938;SDS011;51453;47.738;7.420;2023-12-28T12:05:37;18.23;;;9.88;;
64938;SDS011;51453;47.738;7.420;2023-12-28T12:08:04;16.55;;;10.57;;
64938;SDS011;51453;47.738;7.420;2023-12-28T12:10:30;13.90;;;9.82;;
64938;SDS011;51453;47.738;7.420;2023-12-28T12:12:57;14.27;;;9.40;;
64938;SDS011;51453;47.738;7.420;2023-12-28T12:15:23;14.27;;;8.30;;
64938;SDS011;51453;47.738;7.420;2023-12-28T12:17:48;13.70;;;8.35;;
64938;SDS011;51453;47.738;7.420;2023-12-28T12:20:15;13.00;;;8.73;;
64938;SDS011;51453;47.738;7.420;2023-12-28T12:22:40;9.52;;;5.90;;
64938;SDS011;51453;47.738;7.420;2023-12-28T12:25:06;8.25;;;5.85;;
64938;SDS011;51453;47.738;7.420;2023-12-28T12:27:34;10.75;;;6.78;;
64938;SDS011;51453;47.738;7.420;2023-12-28T12:30:01;10.32;;;5.75;;
64938;SDS011;51453;47.738;7.420;2023-12-28T12:32:28;14.35;;;5.80;;
64938;SDS011;51453;47.738;7.420;2023-12-28T12:34:54;8.48;;;5.15;;
64938;SDS011;51453;47.738;7.420;2023-12-28T12:37:20;8.52;;;5.70;;
64938;SDS011;51453;47.738;7.420;2023-12-28T12:39:46;13.75;;;7.20;;
64938;SDS011;51453;47.738;7.420;2023-12-28T12:42:14;10.25;;;5.45;;
64938;SDS011;51453;47.738;7.420;2023-12-28T12:44:41;8.50;;;5.32;;
64938;SDS011;51453;47.738;7.420;2023-12-28T12:47:07;7.85;;;4.72;;
64938;SDS011;51453;47.738;7.420;2023-12-28T12:49:33;7.95;;;5.20;;
64938;SDS011;51453;47.738;7.420;2023-12-28T12:51:58;8.68;;;5.75;;
64938;SDS011;51453;47.738;7.420;2023-12-28T12:54:26;7.07;;;4.50;;
64938;SDS011;51453;47.738;7.420;2023-12-28T12:56:52;7.22;;;4.28;;
64938;SDS011;51453;47.738;7.420;2023-12-28T12:59:18;9.65;;;5.53;;
64938;SDS011;51453;47.738;7.420;2023-12-28T13:01:44;9.50;;;6.18;;
64938;SDS011;51453;47.738;7.420;2023-12-28T13:04:10;10.63;;;6.50;;
64938;SDS011;51453;47.738;7.420;2023-12-28T13:06:37;10.63;;;7.15;;
64938;SDS011;51453;47.738;7.420;2023-12-28T13:09:03;9.77;;;6.70;;
64938;SDS011;51453;47.738;7.420;2023-12-28T13:11:31;10.13;;;6.70;;
64938;SDS011;51453;47.738;7.420;2023-12-28T13:13:58;8.85;;;6.40;;
64938;SDS011;51453;47.738;7.420;2023-12-28T13:16:24;13.80;;;7.00;;
64938;SDS011;51453;47.738;7.420;2023-12-28T13:18:50;11.45;;;6.82;;
64938;SDS011;51453;47.738;7.420;2023-12-28T13:21:15;13.55;;;7.65;;
64938;SDS011;51453;47.738;7.420;2023-12-28T13:23:41;13.23;;;9.23;;
64938;SDS011;51453;47.738;7.420;2023-12-28T13:26:07;12.70;;;7.93;;
64938;SDS011;51453;47.738;7.420;2023-12-28T13:28:32;10.77;;;7.63;;
64938;SDS011;51453;47.738;7.420;2023-12-28T13:30:58;10.07;;;7.00;;
64938;SDS011;51453;47.738;7.420;2023-12-28T13:33:24;9.18;;;7.15;;
64938;SDS011;51453;47.738;7.420;2023-12-28T13:35:49;12.20;;;7.60;;
64938;SDS011;51453;47.738;7.420;2023-12-28T13:38:15;12.50;;;7.78;;
64938;SDS011;51453;47.738;7.420;2023-12-28T13:40:41;11.55;;;7.95;;
64938;SDS011;51453;47.738;7.420;2023-12-28T13:43:07;13.32;;;7.93;;
64938;SDS011;51453;47.738;7.420;2023-12-28T13:45:34;12.05;;;7.88;;
64938;SDS011;51453;47.738;7.420;2023-12-28T13:48:00;13.02;;;7.80;;
64938;SDS011;51453;47.738;7.420;2023-12-28T13:50:26;14.82;;;8.68;;
64938;SDS011;51453;47.738;7.420;2023-12-28T13:52:53;14.95;;;8.45;;
64938;SDS011;51453;47.738;7.420;2023-12-28T13:55:20;20.13;;;11.02;;
64938;SDS011;51453;47.738;7.420;2023-12-28T13:57:45;18.80;;;10.80;;
64938;SDS011;51453;47.738;7.420;2023-12-28T14:00:11;16.23;;;9.98;;
64938;SDS011;51453;47.738;7.420;2023-12-28T14:02:38;15.27;;;9.70;;
64938;SDS011;51453;47.738;7.420;2023-12-28T14:05:05;15.13;;;9.63;;
64938;SDS011;51453;47.738;7.420;2023-12-28T14:07:31;15.10;;;9.70;;
64938;SDS011;51453;47.738;7.420;2023-12-28T14:09:56;14.65;;;9.13;;
64938;SDS011;51453;47.738;7.420;2023-12-28T14:12:22;12.55;;;7.47;;
64938;SDS011;51453;47.738;7.420;2023-12-28T14:14:48;11.23;;;7.82;;
64938;SDS011;51453;47.738;7.420;2023-12-28T14:17:13;10.40;;;6.70;;
64938;SDS011;51453;47.738;7.420;2023-12-28T14:19:40;12.75;;;7.22;;
64938;SDS011;51453;47.738;7.420;2023-12-28T14:22:06;12.85;;;8.32;;
64938;SDS011;51453;47.738;7.420;2023-12-28T14:24:32;12.23;;;8.20;;
64938;SDS011;51453;47.738;7.420;2023-12-28T14:26:58;13.88;;;8.73;;
64938;SDS011;51453;47.738;7.420;2023-12-28T14:29:24;20.08;;;11.65;;
64938;SDS011;51453;47.738;7.420;2023-12-28T14:31:51;33.30;;;14.70;;
64938;SDS011;51453;47.738;7.420;2023-12-28T14:34:17;30.90;;;14.88;;
64938;SDS011;51453;47.738;7.420;2023-12-28T14:36:44;49.58;;;18.60;;
64938;SDS011;51453;47.738;7.420;2023-12-28T14:39:16;23.85;;;12.50;;